createdAt,value
2022-08-03T00:02:19.755Z,4.30
2022-08-03T00:04:47.850Z,5.00
2022-08-03T00:07:16.806Z,5.00
2022-08-03T00:09:44.956Z,5.10
2022-08-03T00:12:13.482Z,4.60
2022-08-03T00:14:42.044Z,4.70
2022-08-03T00:17:10.127Z,5.30
2022-08-03T00:19:38.144Z,5.00
2022-08-03T00:22:06.236Z,6.00
2022-08-03T00:24:36.288Z,5.30
2022-08-03T00:27:04.419Z,4.40
2022-08-03T00:29:32.339Z,4.80
2022-08-03T00:32:00.752Z,4.50
2022-08-03T00:34:57.363Z,6.40
2022-08-03T00:37:17.148Z,6.30
2022-08-03T00:39:47.327Z,5.70
2022-08-03T00:42:15.732Z,4.60
2022-08-03T00:44:45.316Z,5.50
2022-08-03T00:47:13.536Z,5.60
2022-08-03T00:49:42.469Z,4.90
2022-08-03T00:52:13.788Z,5.10
2022-08-03T00:54:41.903Z,5.40
2022-08-03T00:57:11.276Z,5.10
2022-08-03T00:59:39.809Z,4.40
2022-08-03T01:02:08.398Z,5.20
2022-08-03T01:04:36.451Z,5.20
2022-08-03T01:07:20.658Z,5.80
2022-08-03T01:10:15.680Z,6.10
2022-08-03T01:12:58.054Z,6.10
2022-08-03T01:15:39.318Z,5.80
2022-08-03T01:18:46.431Z,4.10
2022-08-03T01:21:26.716Z,4.50
2022-08-03T01:24:07.219Z,4.80
2022-08-03T01:26:42.843Z,4.80
2022-08-03T01:29:38.763Z,6.40
2022-08-03T01:32:53.594Z,5.80
2022-08-03T01:35:06.678Z,6.70
2022-08-03T01:37:48.131Z,5.10
2022-08-03T01:40:17.895Z,6.40
2022-08-03T01:42:48.026Z,5.10
2022-08-03T01:45:18.847Z,6.50
2022-08-03T01:47:48.770Z,6.30
2022-08-03T01:50:23.104Z,6.40
2022-08-03T01:52:53.249Z,5.20
2022-08-03T01:55:23.923Z,6.60
2022-08-03T01:58:05.351Z,5.50
2022-08-03T02:00:39.782Z,5.50
2022-08-03T02:03:09.997Z,7.40
2022-08-03T02:05:40.247Z,6.30
2022-08-03T02:08:11.299Z,6.10
2022-08-03T02:10:41.876Z,6.10
2022-08-03T02:13:10.820Z,5.90
2022-08-03T02:15:39.668Z,7.00
2022-08-03T02:18:09.827Z,6.00
2022-08-03T02:20:40.243Z,6.10
2022-08-03T02:23:08.775Z,8.10
2022-08-03T02:25:46.221Z,6.90
2022-08-03T02:28:20.869Z,5.80
2022-08-03T02:30:55.095Z,6.20
2022-08-03T02:33:30.319Z,5.70
2022-08-03T02:36:01.357Z,5.70
2022-08-03T02:38:34.539Z,8.10
2022-08-03T02:41:07.558Z,6.60
2022-08-03T02:43:39.200Z,6.20
2022-08-03T02:46:33.940Z,6.00
2022-08-03T02:49:40.929Z,6.80
2022-08-03T02:51:54.957Z,6.00
2022-08-03T02:54:25.275Z,6.00
2022-08-03T02:56:57.144Z,5.80
2022-08-03T02:59:26.577Z,4.90
2022-08-03T03:01:55.804Z,7.00
2022-08-03T03:04:24.200Z,6.50
2022-08-03T03:07:01.771Z,7.80
2022-08-03T03:09:40.080Z,6.00
2022-08-03T03:12:12.948Z,4.90
2022-08-03T03:14:41.313Z,5.10
2022-08-03T03:17:15.169Z,6.00
2022-08-03T03:19:45.644Z,6.30
2022-08-03T03:22:15.621Z,5.90
2022-08-03T03:24:46.397Z,5.00
2022-08-03T03:27:16.502Z,7.00
2022-08-03T03:29:45.328Z,7.10
2022-08-03T03:32:14.073Z,7.10
2022-08-03T03:34:42.775Z,5.30
2022-08-03T03:37:12.600Z,8.40
2022-08-03T03:39:40.635Z,6.00
2022-08-03T03:42:08.919Z,6.10
2022-08-03T03:44:37.258Z,6.70
2022-08-03T03:47:05.500Z,7.90
2022-08-03T03:49:33.886Z,6.00
2022-08-03T03:52:02.162Z,7.90
2022-08-03T03:54:41.428Z,6.60
2022-08-03T03:57:13.101Z,7.60
2022-08-03T03:59:42.790Z,7.90
2022-08-03T04:02:12.401Z,6.90
2022-08-03T04:04:58.920Z,6.30
2022-08-03T04:07:55.759Z,6.40
2022-08-03T04:10:47.571Z,6.20
2022-08-03T04:13:17.787Z,7.20
2022-08-03T04:15:48.028Z,7.80
2022-08-03T04:18:17.297Z,6.50
2022-08-03T04:20:49.071Z,8.10
2022-08-03T04:23:21.274Z,6.00
2022-08-03T04:25:51.787Z,6.90
2022-08-03T04:28:30.543Z,6.80
2022-08-03T04:31:02.824Z,7.10
2022-08-03T04:33:34.945Z,8.60
2022-08-03T04:36:09.094Z,7.10
2022-08-03T04:38:40.941Z,8.00
2022-08-03T04:41:10.115Z,7.20
2022-08-03T04:43:40.927Z,5.90
2022-08-03T04:46:10.700Z,6.40
2022-08-03T04:48:43.464Z,5.30
2022-08-03T04:51:13.428Z,5.80
2022-08-03T04:53:42.898Z,5.70
2022-08-03T04:56:10.933Z,4.80
2022-08-03T04:58:39.581Z,5.40
2022-08-03T05:01:07.801Z,5.30
2022-08-03T05:03:37.216Z,5.70
2022-08-03T05:06:11.043Z,5.30
2022-08-03T05:08:46.847Z,6.90
2022-08-03T05:11:17.578Z,7.00
2022-08-03T05:13:46.705Z,6.40
2022-08-03T05:16:15.356Z,6.90
2022-08-03T05:18:43.966Z,5.60
2022-08-03T05:21:17.007Z,6.30
2022-08-03T05:23:45.039Z,5.50
2022-08-03T05:26:13.217Z,6.00
2022-08-03T05:28:51.053Z,6.20
2022-08-03T05:31:19.729Z,5.40
2022-08-03T05:33:49.174Z,5.30
2022-08-03T05:36:17.257Z,5.10
2022-08-03T05:38:45.467Z,5.10
2022-08-03T05:41:20.939Z,5.70
2022-08-03T05:43:55.619Z,4.50
2022-08-03T05:46:24.017Z,4.50
2022-08-03T05:48:52.359Z,4.90
2022-08-03T05:51:20.720Z,5.50
2022-08-03T05:53:48.890Z,5.20
2022-08-03T05:56:17.165Z,4.90
2022-08-03T05:58:47.500Z,4.60
2022-08-03T06:01:17.308Z,5.10
2022-08-03T06:03:46.539Z,4.60
2022-08-03T06:06:15.148Z,4.10
2022-08-03T06:08:45.613Z,4.10
2022-08-03T06:11:14.026Z,4.10
2022-08-03T06:13:42.434Z,4.30
2022-08-03T06:16:11.049Z,3.70
2022-08-03T06:18:40.655Z,4.20
2022-08-03T06:21:15.646Z,4.30
2022-08-03T06:23:52.835Z,4.30
2022-08-03T06:26:28.054Z,4.20
2022-08-03T06:28:56.829Z,4.10
2022-08-03T06:31:32.479Z,4.50
2022-08-03T06:34:32.275Z,4.40
2022-08-03T06:36:53.013Z,4.30
2022-08-03T06:39:23.433Z,3.80
2022-08-03T06:41:53.644Z,3.40
2022-08-03T06:44:21.716Z,4.00
2022-08-03T06:46:49.873Z,3.40
2022-08-03T06:49:17.951Z,3.60
2022-08-03T06:52:37.069Z,3.60
2022-08-03T06:54:34.354Z,4.40
2022-08-03T06:57:02.417Z,3.70
2022-08-03T07:00:08.445Z,3.40
2022-08-03T07:02:21.795Z,2.70
2022-08-03T07:04:50.301Z,2.80
2022-08-03T07:07:19.524Z,3.40
2022-08-03T07:09:55.718Z,3.30
2022-08-03T07:12:28.498Z,3.50
2022-08-03T07:15:00.868Z,2.80
2022-08-03T07:17:33.838Z,3.00
2022-08-03T07:20:05.724Z,3.20
2022-08-03T07:25:03.392Z,3.00
2022-08-03T07:27:31.472Z,3.20
2022-08-03T07:29:59.669Z,3.30
2022-08-03T07:32:31.708Z,3.70
2022-08-03T07:35:01.137Z,3.00
2022-08-03T07:37:30.678Z,3.20
2022-08-03T07:40:02.467Z,2.70
2022-08-03T07:42:31.469Z,2.80
2022-08-03T07:45:00.352Z,3.10
2022-08-03T07:47:35.084Z,3.00
2022-08-03T07:50:06.571Z,3.80
2022-08-03T07:52:53.217Z,3.20
2022-08-03T07:55:24.168Z,3.10
2022-08-03T07:58:06.268Z,2.90
2022-08-03T08:00:34.472Z,2.90
2022-08-03T08:03:03.115Z,3.30
2022-08-03T08:05:31.999Z,3.30
2022-08-03T08:08:01.455Z,3.20
2022-08-03T08:10:29.986Z,3.40
2022-08-03T08:12:58.036Z,3.60
2022-08-03T08:15:26.263Z,3.60
2022-08-03T08:17:57.272Z,3.20
2022-08-03T08:20:34.272Z,3.50
2022-08-03T08:23:09.534Z,3.50
2022-08-03T08:25:50.192Z,3.40
2022-08-03T08:28:22.276Z,3.10
2022-08-03T08:34:02.543Z,3.00
2022-08-03T08:36:26.219Z,3.40
2022-08-03T08:38:54.217Z,3.50
2022-08-03T08:41:22.235Z,3.50
2022-08-03T08:43:50.439Z,3.10
2022-08-03T08:46:23.747Z,2.90
2022-08-03T08:48:54.598Z,3.00
2022-08-03T08:51:43.854Z,2.90
2022-08-03T08:54:21.043Z,2.70
2022-08-03T08:56:52.484Z,2.60
2022-08-03T08:59:21.903Z,2.60
2022-08-03T09:01:49.853Z,3.00
2022-08-03T09:04:17.943Z,3.10
2022-08-03T09:07:04.404Z,2.20
2022-08-03T09:10:11.709Z,1.90
2022-08-03T09:12:40.847Z,2.20
2022-08-03T09:15:18.080Z,2.00
2022-08-03T09:17:50.669Z,2.10
2022-08-03T09:20:25.275Z,1.70
2022-08-03T09:22:57.761Z,1.70
2022-08-03T09:25:30.190Z,2.20
2022-08-03T09:28:11.166Z,2.10
2022-08-03T09:30:44.258Z,2.20
2022-08-03T09:33:16.427Z,2.00
2022-08-03T09:35:54.545Z,1.70
2022-08-03T09:38:26.345Z,2.00
2022-08-03T09:41:00.060Z,2.00
2022-08-03T09:43:29.432Z,1.90
2022-08-03T09:46:07.432Z,1.80
2022-08-03T09:48:36.949Z,1.90
2022-08-03T09:51:13.846Z,1.90
2022-08-03T09:53:59.167Z,2.00
2022-08-03T09:56:42.140Z,2.20
2022-08-03T09:59:11.989Z,2.10
2022-08-03T10:01:48.158Z,1.90
2022-08-03T10:04:19.657Z,2.10
2022-08-03T10:09:32.289Z,1.80
2022-08-03T10:12:21.353Z,2.20
2022-08-03T10:14:49.675Z,2.80
2022-08-03T10:17:17.839Z,1.90
2022-08-03T10:19:47.455Z,2.10
2022-08-03T10:22:19.150Z,1.90
2022-08-03T10:25:00.334Z,2.10
2022-08-03T10:27:34.411Z,2.10
2022-08-03T10:30:06.460Z,1.80
2022-08-03T10:32:37.760Z,2.00
2022-08-03T10:35:21.047Z,2.10
2022-08-03T10:37:56.666Z,1.90
2022-08-03T10:40:48.181Z,1.60
2022-08-03T10:43:41.051Z,2.20
2022-08-03T10:46:09.069Z,1.80
2022-08-03T10:48:37.533Z,2.20
2022-08-03T10:51:06.973Z,1.80
2022-08-03T10:53:40.521Z,2.00
2022-08-03T10:56:52.765Z,1.90
2022-08-03T10:59:53.069Z,1.80
2022-08-03T11:02:21.079Z,1.70
2022-08-03T11:05:30.565Z,1.90
2022-08-03T11:08:21.494Z,2.00
2022-08-03T11:10:51.750Z,1.80
2022-08-03T11:13:21.549Z,1.70
2022-08-03T11:15:52.092Z,1.90
2022-08-03T11:18:21.011Z,2.20
2022-08-03T11:20:59.846Z,1.80
2022-08-03T11:24:05.493Z,1.90
2022-08-03T11:26:36.711Z,2.10
2022-08-03T11:29:29.097Z,1.80
2022-08-03T11:31:57.198Z,1.80
2022-08-03T11:34:26.822Z,1.90
2022-08-03T11:37:29.919Z,1.90
2022-08-03T11:40:02.381Z,1.60
2022-08-03T11:42:45.333Z,2.00
2022-08-03T11:45:13.715Z,1.70
2022-08-03T11:47:50.460Z,1.90
2022-08-03T11:50:24.084Z,2.20
2022-08-03T11:52:52.403Z,1.80
2022-08-03T11:55:22.283Z,1.50
2022-08-03T11:59:16.400Z,1.80
2022-08-03T12:00:38.517Z,1.70
2022-08-03T12:03:09.366Z,1.80
2022-08-03T12:05:51.151Z,1.80
2022-08-03T12:08:33.419Z,2.00
2022-08-03T12:11:09.653Z,2.00
2022-08-03T12:13:56.623Z,2.20
2022-08-03T12:16:29.199Z,2.10
2022-08-03T12:19:03.605Z,1.70
2022-08-03T12:21:32.818Z,1.80
2022-08-03T12:24:03.732Z,2.00
2022-08-03T12:26:45.469Z,1.90
2022-08-03T12:29:30.019Z,1.90
2022-08-03T12:31:58.177Z,1.60
2022-08-03T12:34:49.427Z,1.70
2022-08-03T12:37:23.693Z,2.00
2022-08-03T12:40:05.197Z,2.10
2022-08-03T12:42:39.535Z,2.70
2022-08-03T12:45:28.646Z,2.30
2022-08-03T12:47:59.991Z,1.70
2022-08-03T12:50:41.788Z,1.70
2022-08-03T12:53:10.781Z,1.80
2022-08-03T12:55:57.416Z,2.20
2022-08-03T12:58:36.254Z,1.80
2022-08-03T13:01:09.595Z,1.90
2022-08-03T13:03:43.209Z,1.80
2022-08-03T13:06:22.908Z,1.90
2022-08-03T13:09:03.762Z,2.00
2022-08-03T13:11:55.645Z,1.90
2022-08-03T13:14:23.629Z,1.80
2022-08-03T13:16:51.993Z,1.80
2022-08-03T13:19:20.052Z,2.10
2022-08-03T13:22:03.615Z,2.20
2022-08-03T13:24:33.458Z,1.70
2022-08-03T13:28:01.936Z,2.10
2022-08-03T13:29:53.062Z,2.00
2022-08-03T13:32:21.704Z,1.90
2022-08-03T13:34:50.041Z,2.10
2022-08-03T13:37:18.265Z,2.10
2022-08-03T13:39:57.457Z,2.10
2022-08-03T13:42:33.626Z,2.10
2022-08-03T13:45:02.980Z,2.00
2022-08-03T13:47:31.503Z,1.80
2022-08-03T13:50:04.215Z,1.90
2022-08-03T13:52:36.152Z,5.10
2022-08-03T13:55:06.008Z,2.80
2022-08-03T13:58:02.560Z,2.20
2022-08-03T14:00:29.650Z,2.10
2022-08-03T14:03:17.377Z,2.70
2022-08-03T14:05:45.437Z,2.20
2022-08-03T14:08:13.586Z,2.70
2022-08-03T14:10:44.062Z,1.80
2022-08-03T14:13:18.059Z,1.90
2022-08-03T14:15:49.946Z,1.80
2022-08-03T14:18:28.924Z,1.90
2022-08-03T14:21:06.617Z,2.40
2022-08-03T14:23:42.150Z,2.20
2022-08-03T14:26:14.561Z,2.20
2022-08-03T14:28:49.528Z,4.00
2022-08-03T14:32:10.158Z,2.30
2022-08-03T14:34:05.844Z,3.70
2022-08-03T14:36:33.920Z,1.90
2022-08-03T14:39:03.757Z,6.40
2022-08-03T14:41:31.753Z,1.80
2022-08-03T14:44:01.579Z,1.90
2022-08-03T14:46:31.894Z,2.00
2022-08-03T14:50:29.095Z,5.90
2022-08-03T14:51:51.354Z,3.00
2022-08-03T14:54:23.039Z,12.10
2022-08-03T14:56:51.556Z,2.00
2022-08-03T14:59:19.657Z,2.00
2022-08-03T15:02:05.331Z,2.80
2022-08-03T15:04:35.877Z,2.10
2022-08-03T15:07:04.286Z,2.00
2022-08-03T15:09:33.170Z,4.70
2022-08-03T15:12:01.366Z,3.00
2022-08-03T15:14:37.858Z,2.50
2022-08-03T15:17:06.846Z,2.00
2022-08-03T15:20:01.243Z,1.80
2022-08-03T15:22:24.988Z,2.90
2022-08-03T15:26:28.841Z,2.30
2022-08-03T15:28:03.399Z,1.90
2022-08-03T15:30:36.115Z,2.20
2022-08-03T15:35:34.135Z,2.00
2022-08-03T15:38:06.070Z,4.30
2022-08-03T15:40:39.795Z,2.10
2022-08-03T15:43:08.381Z,2.20
2022-08-03T15:45:37.513Z,2.00
2022-08-03T15:48:06.373Z,1.90
2022-08-03T15:50:34.628Z,1.70
2022-08-03T15:53:02.942Z,2.40
2022-08-03T15:55:31.590Z,2.00
2022-08-03T15:59:10.513Z,1.80
2022-08-03T16:00:47.657Z,2.00
2022-08-03T16:03:15.682Z,2.10
2022-08-03T16:05:43.680Z,1.80
2022-08-03T16:08:13.808Z,1.70
2022-08-03T16:10:42.579Z,1.50
2022-08-03T16:13:10.631Z,2.00
2022-08-03T16:15:39.277Z,1.70
2022-08-03T16:18:07.683Z,2.00
2022-08-03T16:20:35.804Z,2.20
2022-08-03T16:23:09.188Z,1.70
2022-08-03T16:25:40.523Z,1.90
2022-08-03T16:28:13.755Z,1.80
2022-08-03T16:30:44.341Z,2.50
2022-08-03T16:33:16.954Z,2.10
2022-08-03T16:35:49.782Z,1.80
2022-08-03T16:38:19.440Z,2.20
2022-08-03T16:40:51.956Z,1.60
2022-08-03T16:43:22.589Z,1.70
2022-08-03T16:45:51.277Z,1.70
2022-08-03T16:48:19.409Z,1.70
2022-08-03T16:50:49.152Z,1.80
2022-08-03T16:53:51.632Z,2.10
2022-08-03T16:56:09.907Z,1.70
2022-08-03T16:58:42.524Z,1.90
2022-08-03T17:01:21.457Z,2.20
2022-08-03T17:04:02.478Z,2.10
2022-08-03T17:06:36.535Z,2.20
2022-08-03T17:09:11.800Z,2.30
2022-08-03T17:11:46.578Z,2.10
2022-08-03T17:14:22.905Z,2.20
2022-08-03T17:17:01.453Z,2.10
2022-08-03T17:19:39.661Z,2.40
2022-08-03T17:22:12.785Z,2.00
2022-08-03T17:24:53.745Z,2.20
2022-08-03T17:28:51.234Z,1.90
2022-08-03T17:30:18.861Z,2.10
2022-08-03T17:32:52.674Z,2.30
2022-08-03T17:35:36.689Z,2.30
2022-08-03T17:38:15.825Z,2.20
2022-08-03T17:40:52.204Z,2.20
2022-08-03T17:44:14.442Z,2.50
2022-08-03T17:46:10.819Z,2.30
2022-08-03T17:48:45.153Z,2.20
2022-08-03T17:51:17.243Z,2.40
2022-08-03T17:54:18.152Z,2.70
2022-08-03T17:58:02.818Z,4.00
2022-08-03T18:00:45.679Z,2.40
2022-08-03T18:03:23.184Z,2.80
2022-08-03T18:06:11.057Z,2.60
2022-08-03T18:08:55.209Z,2.40
2022-08-03T18:11:35.782Z,2.60
2022-08-03T18:14:17.386Z,2.60
2022-08-03T18:17:10.547Z,2.40
2022-08-03T18:20:03.212Z,2.70
2022-08-03T18:22:37.061Z,2.60
2022-08-03T18:25:10.732Z,2.70
2022-08-03T18:27:47.633Z,2.60
2022-08-03T18:30:17.681Z,2.60
2022-08-03T18:33:00.669Z,3.00
2022-08-03T18:35:53.907Z,3.00
2022-08-03T18:38:26.058Z,2.80
2022-08-03T18:40:56.245Z,2.90
2022-08-03T18:43:46.574Z,2.90
2022-08-03T18:46:41.006Z,3.40
2022-08-03T18:49:34.201Z,3.00
2022-08-03T18:52:12.295Z,3.20
2022-08-03T18:55:19.912Z,2.80
2022-08-03T18:58:08.036Z,2.70
2022-08-03T19:01:05.249Z,3.00
2022-08-03T19:04:18.219Z,2.80
2022-08-03T19:07:08.821Z,3.10
2022-08-03T19:09:39.848Z,3.10
2022-08-03T19:12:32.562Z,2.70
2022-08-03T19:15:13.489Z,3.60
2022-08-03T19:17:50.072Z,3.10
2022-08-03T19:20:27.471Z,3.00
2022-08-03T19:22:59.028Z,2.80
2022-08-03T19:25:34.886Z,2.70
2022-08-03T19:28:06.036Z,2.80
2022-08-03T19:30:38.528Z,3.20
2022-08-03T19:33:13.323Z,3.50
2022-08-03T19:35:51.447Z,3.80
2022-08-03T19:38:32.231Z,3.70
2022-08-03T19:41:03.695Z,3.80
2022-08-03T19:43:53.876Z,2.90
2022-08-03T19:46:31.032Z,2.90
2022-08-03T19:49:15.469Z,3.00
2022-08-03T19:52:00.654Z,2.40
2022-08-03T19:54:49.354Z,3.30
2022-08-03T19:57:24.666Z,2.80
2022-08-03T19:59:57.282Z,2.70
2022-08-03T20:02:27.986Z,2.80
2022-08-03T20:05:14.909Z,2.70
2022-08-03T20:07:48.540Z,3.20
2022-08-03T20:10:20.971Z,2.60
2022-08-03T20:12:49.921Z,3.20
2022-08-03T20:15:31.326Z,2.60
2022-08-03T20:18:01.974Z,2.60
2022-08-03T20:20:36.583Z,3.20
2022-08-03T20:23:11.509Z,3.30
2022-08-03T20:25:48.609Z,3.10
2022-08-03T20:28:50.241Z,3.30
2022-08-03T20:31:36.453Z,3.20
2022-08-03T20:34:06.598Z,3.10
2022-08-03T20:36:34.865Z,2.80
2022-08-03T20:39:07.534Z,3.40
2022-08-03T20:41:41.049Z,2.60
2022-08-03T20:44:09.175Z,2.60
2022-08-03T20:46:55.013Z,3.00
2022-08-03T20:49:27.288Z,2.80
2022-08-03T20:51:55.341Z,2.90
2022-08-03T20:54:29.118Z,2.70
2022-08-03T20:57:04.439Z,2.60
2022-08-03T20:59:50.352Z,2.80
2022-08-03T21:02:31.214Z,3.30
2022-08-03T21:05:03.767Z,2.70
2022-08-03T21:08:06.456Z,2.60
2022-08-03T21:10:40.648Z,2.60
2022-08-03T21:13:24.045Z,3.10
2022-08-03T21:16:04.732Z,2.60
2022-08-03T21:18:48.962Z,2.60
2022-08-03T21:21:19.531Z,2.60
2022-08-03T21:23:53.314Z,2.80
2022-08-03T21:26:24.957Z,3.10
2022-08-03T21:29:00.148Z,2.60
2022-08-03T21:31:30.498Z,2.60
2022-08-03T21:34:02.334Z,2.70
2022-08-03T21:36:33.219Z,3.30
2022-08-03T21:39:02.391Z,2.70
2022-08-03T21:41:32.165Z,3.00
2022-08-03T21:44:02.080Z,3.40
2022-08-03T21:46:35.414Z,3.20
2022-08-03T21:50:05.893Z,2.70
2022-08-03T21:52:02.988Z,2.70
2022-08-03T21:54:54.306Z,3.30
2022-08-03T21:57:26.534Z,3.30
2022-08-03T22:00:08.893Z,2.80
2022-08-03T22:02:54.481Z,3.10
2022-08-03T22:05:42.402Z,2.50
2022-08-03T22:08:14.917Z,3.00
2022-08-03T22:10:47.504Z,2.80
2022-08-03T22:13:44.120Z,3.00
2022-08-03T22:16:13.663Z,2.60
2022-08-03T22:18:44.356Z,3.40
2022-08-03T22:21:15.972Z,3.30
2022-08-03T22:23:59.525Z,2.60
2022-08-03T22:26:34.919Z,3.30
2022-08-03T22:29:18.629Z,2.80
2022-08-03T22:31:58.341Z,2.60
2022-08-03T22:34:29.851Z,2.70
2022-08-03T22:37:02.320Z,2.80
2022-08-03T22:39:31.281Z,2.50
2022-08-03T22:41:59.848Z,3.20
2022-08-03T22:44:28.609Z,2.80
2022-08-03T22:46:59.744Z,2.80
2022-08-03T22:49:29.501Z,3.30
2022-08-03T22:51:58.565Z,3.10
2022-08-03T22:54:26.728Z,3.20
2022-08-03T22:56:55.315Z,2.80
2022-08-03T22:59:41.437Z,2.70
2022-08-03T23:02:20.767Z,2.90
2022-08-03T23:04:57.646Z,3.00
2022-08-03T23:07:33.025Z,3.60
2022-08-03T23:10:03.847Z,2.90
2022-08-03T23:12:44.139Z,3.30
2022-08-03T23:15:13.587Z,3.50
2022-08-03T23:18:03.453Z,3.00
2022-08-03T23:20:32.175Z,3.20
2022-08-03T23:23:04.954Z,3.30
2022-08-03T23:25:34.463Z,3.10
2022-08-03T23:28:05.487Z,2.70
2022-08-03T23:30:41.522Z,3.50
2022-08-03T23:33:12.969Z,3.00
2022-08-03T23:36:20.178Z,2.50
2022-08-03T23:38:47.157Z,2.90
2022-08-03T23:41:17.618Z,3.40
2022-08-03T23:43:52.421Z,2.40
2022-08-03T23:46:23.752Z,3.50
2022-08-03T23:49:00.444Z,3.10
2022-08-03T23:51:54.370Z,3.00
2022-08-03T23:54:28.806Z,2.90
2022-08-03T23:57:04.857Z,2.70
